Terminal Aerodrome Forecast
Issued by NWS Boston, MA

Home | Current Version | Previous Version | Text Only | Print | Product List | Glossary On
Versions: 1 2 3 4 5 6 7 8 9 10 11 12 13 14 15 16 17 18 19 20 21 22
000
FTUS41 KBOX 180524
TAFORH
TAF
KORH 180524Z 1806/1906 09007KT 1/2SM FZRAPLSN VV002
     FM180800 07009KT 1/2SM -FZRAPL VV002
     FM181200 05010KT 1/2SM RASN OVC004
     FM181400 05010KT 2SM BR VCSH OVC008
     FM182300 04007KT P6SM OVC008=

USA.gov is the U.S. government's official web portal to all federal, state and local government web resources and services.